Black Diamond, Washington
Current Conditions -  °F | °C
As of 12:03 AM on Friday 19 Dec 2014 (Local Time) from KRNT Reporting Station
Light Rain Light Rain  
Wind Chill: 45°   Ceiling: 3400
Heat Index: 47°   Visibility: 6mi
Dew Point: 47°   Wind: 5mph
Humidity: 100%   Direction: 100°E
Pressure: 29.79"   Gusts: NA
Location:  47.31°N, 122°W
Report Text: KRNT 190803Z AUTO 10004KT 6SM -RA BR SCT007 BKN034 OVC046 08/08 A2979 RMK AO2 P0000 T00830083
Loading
Personal Weather Stations






























Interactive Weather Map New forecast layout! Learn more

10-Day Weather Forecast

Advertisements
Track Severe Weather on mobile